BCS359 LIMC-KCVG
Flight info
| Callsign | BCS359 |
|---|---|
| Flight time | N/A |
| Altitude | 34000 |
| Route | AOSTA DCT ORSUD DCT MOLUS DCT UNKIR DCT DJL DCT OKRIX DCT AMODO DCT COHPA UM729 RESMI UN491 LGL UN502 JSY DCT LIZAD DCT LESLU/N0468F360 DCT LODLA DCT NEBIN/M082F360 DCT 5330N02000W 5330N03000W 53N040W 52N050W DCT TUDEP/N0474F360 N522E ALLEX/N0477F380 Q822 ENE DCT EEN DCT HNK/N0478F400 J49 PSB DCT MAULL DCT KODIE DCT SAVVI TIGRR4 |
| Aircraft | A333/H-SDE3GHIJ2J3J5M1RVWXY/LB2D1 |
Departure
| Time | 2026-05-08 06:18 |
|---|---|
| Airport | Milan Malpensa International Airport (LIMC) |
Arrival
| Time | N/A |
|---|---|
| Airport | Cincinnati Northern Kentucky International Airport (KCVG) |
| Time | Latitude | Longitude | Altitude | Speed | Heading |
|---|---|---|---|---|---|
| 2026-05-08 05:52 | 45.60606 | 8.72132 | 752 ft | 0 kts | 259° |
| 2026-05-08 06:09 | 45.60608 | 8.72148 | 752 ft | 4 kts | 257° |
| 2026-05-08 06:09 | 45.60615 | 8.72185 | 753 ft | 4 kts | 251° |
| 2026-05-08 06:09 | 45.60625 | 8.72220 | 752 ft | 4 kts | 237° |
| 2026-05-08 06:09 | 45.60642 | 8.72246 | 752 ft | 4 kts | 194° |
| 2026-05-08 06:10 | 45.60651 | 8.72248 | 752 ft | 4 kts | 169° |
| 2026-05-08 06:12 | 45.60645 | 8.72254 | 752 ft | 1 kts | 145° |
| 2026-05-08 06:12 | 45.60634 | 8.72279 | 753 ft | 5 kts | 115° |
| 2026-05-08 06:12 | 45.60636 | 8.72343 | 753 ft | 9 kts | 82° |
| 2026-05-08 06:13 | 45.60642 | 8.72447 | 753 ft | 12 kts | 93° |
| 2026-05-08 06:13 | 45.60630 | 8.72587 | 754 ft | 16 kts | 96° |
| 2026-05-08 06:13 | 45.60617 | 8.72758 | 757 ft | 19 kts | 95° |
| 2026-05-08 06:13 | 45.60604 | 8.72961 | 754 ft | 22 kts | 96° |
| 2026-05-08 06:14 | 45.60594 | 8.73185 | 754 ft | 22 kts | 78° |
| 2026-05-08 06:14 | 45.60700 | 8.73308 | 752 ft | 20 kts | 22° |
| 2026-05-08 06:14 | 45.60824 | 8.73380 | 754 ft | 19 kts | 21° |
| 2026-05-08 06:14 | 45.60947 | 8.73394 | 754 ft | 18 kts | 349° |
| 2026-05-08 06:15 | 45.61066 | 8.73361 | 753 ft | 17 kts | 349° |
| 2026-05-08 06:15 | 45.61181 | 8.73328 | 755 ft | 17 kts | 349° |
| 2026-05-08 06:15 | 45.61297 | 8.73296 | 755 ft | 17 kts | 349° |
| 2026-05-08 06:15 | 45.61413 | 8.73265 | 756 ft | 17 kts | 349° |
| 2026-05-08 06:16 | 45.61530 | 8.73233 | 752 ft | 17 kts | 349° |
| 2026-05-08 06:16 | 45.61610 | 8.73241 | 751 ft | 7 kts | 52° |
| 2026-05-08 06:16 | 45.61623 | 8.73313 | 754 ft | 9 kts | 78° |
| 2026-05-08 06:16 | 45.61631 | 8.73415 | 753 ft | 12 kts | 97° |
| 2026-05-08 06:17 | 45.61595 | 8.73688 | 746 ft | 17 kts | 71° |
| 2026-05-08 06:17 | 45.61663 | 8.73722 | 746 ft | 9 kts | 351° |
| 2026-05-08 06:17 | 45.61710 | 8.73711 | 745 ft | 25 kts | 351° |
| 2026-05-08 06:18 | 45.62080 | 8.73608 | 745 ft | 82 kts | 348° |
| 2026-05-08 06:18 | 45.62813 | 8.73404 | 747 ft | 132 kts | 349° |
| 2026-05-08 06:18 | 45.63848 | 8.73121 | 851 ft | 166 kts | 349° |
| 2026-05-08 06:18 | 45.64984 | 8.72811 | 1476 ft | 166 kts | 352° |
| 2026-05-08 06:19 | 45.66157 | 8.72714 | 2081 ft | 172 kts | 2° |
| 2026-05-08 06:19 | 45.67375 | 8.72704 | 2661 ft | 179 kts | 2° |
| 2026-05-08 06:19 | 45.68665 | 8.72683 | 2944 ft | 195 kts | 2° |
| 2026-05-08 06:19 | 45.70089 | 8.72640 | 3151 ft | 213 kts | 1° |
| 2026-05-08 06:20 | 45.71611 | 8.72310 | 3396 ft | 230 kts | 339° |
| 2026-05-08 06:20 | 45.72819 | 8.70787 | 3777 ft | 239 kts | 298° |
| 2026-05-08 06:20 | 45.73105 | 8.68479 | 4258 ft | 239 kts | 262° |
| 2026-05-08 06:20 | 45.72733 | 8.66159 | 4783 ft | 239 kts | 253° |
| 2026-05-08 06:21 | 45.72273 | 8.63889 | 5293 ft | 240 kts | 253° |
| 2026-05-08 06:21 | 45.71820 | 8.61594 | 5822 ft | 240 kts | 253° |
| 2026-05-08 06:21 | 45.71153 | 8.59393 | 6257 ft | 245 kts | 240° |
| 2026-05-08 06:21 | 45.70246 | 8.57252 | 6471 ft | 258 kts | 237° |
| 2026-05-08 06:22 | 45.69254 | 8.55037 | 6682 ft | 271 kts | 237° |
| 2026-05-08 06:22 | 45.68218 | 8.52722 | 7093 ft | 278 kts | 237° |
| 2026-05-08 06:22 | 45.67184 | 8.50414 | 7691 ft | 278 kts | 237° |
| 2026-05-08 06:22 | 45.66142 | 8.48085 | 8298 ft | 279 kts | 237° |
| 2026-05-08 06:23 | 45.65092 | 8.45733 | 8875 ft | 282 kts | 237° |
| 2026-05-08 06:23 | 45.64042 | 8.43380 | 9413 ft | 285 kts | 237° |
| 2026-05-08 06:23 | 45.62951 | 8.41003 | 9995 ft | 286 kts | 234° |
| 2026-05-08 06:23 | 45.61709 | 8.38729 | 10377 ft | 295 kts | 231° |
| 2026-05-08 06:24 | 45.60362 | 8.36422 | 10582 ft | 309 kts | 230° |
| 2026-05-08 06:24 | 45.59018 | 8.33944 | 10776 ft | 323 kts | 239° |
| 2026-05-08 06:24 | 45.58255 | 8.30944 | 11375 ft | 319 kts | 263° |
| 2026-05-08 06:24 | 45.58383 | 8.27851 | 12306 ft | 307 kts | 283° |
| 2026-05-08 06:25 | 45.58963 | 8.24992 | 13111 ft | 300 kts | 287° |
| 2026-05-08 06:25 | 45.59630 | 8.22162 | 13667 ft | 301 kts | 288° |
| 2026-05-08 06:25 | 45.60310 | 8.19314 | 14089 ft | 305 kts | 288° |
| 2026-05-08 06:25 | 45.60996 | 8.16417 | 14495 ft | 308 kts | 287° |
| 2026-05-08 06:26 | 45.61673 | 8.13532 | 14959 ft | 309 kts | 287° |
| 2026-05-08 06:26 | 45.62351 | 8.10622 | 15426 ft | 310 kts | 287° |
| 2026-05-08 06:26 | 45.63030 | 8.07694 | 15875 ft | 311 kts | 287° |
| 2026-05-08 06:26 | 45.63711 | 8.04748 | 16311 ft | 313 kts | 287° |
| 2026-05-08 06:27 | 45.64395 | 8.01786 | 16775 ft | 315 kts | 286° |
| 2026-05-08 06:27 | 45.65081 | 7.98808 | 17229 ft | 316 kts | 286° |
| 2026-05-08 06:27 | 45.65771 | 7.95810 | 17680 ft | 318 kts | 286° |
| 2026-05-08 06:27 | 45.66463 | 7.92795 | 18079 ft | 320 kts | 286° |
| 2026-05-08 06:28 | 45.67153 | 7.89788 | 18477 ft | 322 kts | 286° |
| 2026-05-08 06:28 | 45.67854 | 7.86726 | 18873 ft | 323 kts | 286° |
| 2026-05-08 06:28 | 45.68551 | 7.83676 | 19258 ft | 324 kts | 286° |
| 2026-05-08 06:28 | 45.69253 | 7.80605 | 19658 ft | 325 kts | 285° |
| 2026-05-08 06:29 | 45.69958 | 7.77510 | 19880 ft | 332 kts | 285° |
| 2026-05-08 06:29 | 45.70684 | 7.74317 | 20032 ft | 341 kts | 285° |
| 2026-05-08 06:29 | 45.71417 | 7.71088 | 20190 ft | 349 kts | 285° |
| 2026-05-08 06:29 | 45.72178 | 7.67738 | 20355 ft | 358 kts | 285° |
| 2026-05-08 06:30 | 45.72956 | 7.64304 | 20521 ft | 367 kts | 285° |
| 2026-05-08 06:30 | 45.73752 | 7.60784 | 20655 ft | 375 kts | 285° |
| 2026-05-08 06:30 | 45.74567 | 7.57177 | 20793 ft | 383 kts | 285° |
| 2026-05-08 06:30 | 45.75393 | 7.53513 | 20940 ft | 391 kts | 285° |
| 2026-05-08 06:31 | 45.76236 | 7.49771 | 21109 ft | 399 kts | 285° |
| 2026-05-08 06:31 | 45.77085 | 7.45996 | 21269 ft | 405 kts | 285° |
| 2026-05-08 06:31 | 45.77955 | 7.42124 | 21537 ft | 409 kts | 285° |
| 2026-05-08 06:31 | 45.78961 | 7.38286 | 21854 ft | 413 kts | 293° |
| 2026-05-08 06:32 | 45.80451 | 7.34750 | 22171 ft | 419 kts | 306° |
| 2026-05-08 06:32 | 45.82487 | 7.31735 | 22501 ft | 424 kts | 316° |
| 2026-05-08 06:32 | 45.84769 | 7.29093 | 22824 ft | 427 kts | 320° |
| 2026-05-08 06:32 | 45.87209 | 7.26558 | 23122 ft | 430 kts | 322° |
| 2026-05-08 06:33 | 45.89642 | 7.24150 | 23463 ft | 431 kts | 322° |
| 2026-05-08 06:33 | 45.92129 | 7.21719 | 23810 ft | 433 kts | 322° |
| 2026-05-08 06:33 | 45.94627 | 7.19261 | 24079 ft | 435 kts | 322° |
| 2026-05-08 06:33 | 45.97120 | 7.16774 | 24342 ft | 437 kts | 322° |
| 2026-05-08 06:34 | 45.99619 | 7.14252 | 24602 ft | 439 kts | 321° |
| 2026-05-08 06:34 | 46.02114 | 7.11709 | 24901 ft | 440 kts | 321° |
| 2026-05-08 06:34 | 46.04619 | 7.09141 | 25157 ft | 442 kts | 321° |
| 2026-05-08 06:34 | 46.07102 | 7.06586 | 25448 ft | 443 kts | 321° |
| 2026-05-08 06:35 | 46.09620 | 7.03995 | 25756 ft | 444 kts | 321° |
| 2026-05-08 06:35 | 46.12148 | 7.01391 | 26006 ft | 447 kts | 320° |
| 2026-05-08 06:35 | 46.14684 | 6.98777 | 26206 ft | 449 kts | 320° |
| 2026-05-08 06:35 | 46.17227 | 6.96154 | 26485 ft | 449 kts | 320° |
| 2026-05-08 06:36 | 46.19739 | 6.93561 | 26716 ft | 449 kts | 320° |
| 2026-05-08 06:36 | 46.22286 | 6.90934 | 26929 ft | 451 kts | 320° |
| 2026-05-08 06:36 | 46.24843 | 6.88287 | 27173 ft | 453 kts | 320° |
| 2026-05-08 06:36 | 46.27409 | 6.85626 | 27444 ft | 454 kts | 319° |
| 2026-05-08 06:37 | 46.29987 | 6.82951 | 27726 ft | 456 kts | 319° |
| 2026-05-08 06:37 | 46.32567 | 6.80272 | 28021 ft | 457 kts | 319° |
| 2026-05-08 06:37 | 46.35162 | 6.77578 | 28247 ft | 458 kts | 319° |
| 2026-05-08 06:37 | 46.37752 | 6.74881 | 28498 ft | 459 kts | 319° |
| 2026-05-08 06:38 | 46.40318 | 6.72202 | 28731 ft | 459 kts | 317° |
| 2026-05-08 06:38 | 46.42756 | 6.69244 | 28927 ft | 455 kts | 310° |
| 2026-05-08 06:38 | 46.44883 | 6.65861 | 29140 ft | 451 kts | 302° |
| 2026-05-08 06:38 | 46.46657 | 6.62135 | 29388 ft | 448 kts | 297° |
| 2026-05-08 06:39 | 46.48291 | 6.58288 | 29634 ft | 448 kts | 295° |
| 2026-05-08 06:39 | 46.49860 | 6.54388 | 29937 ft | 447 kts | 294° |
| 2026-05-08 06:39 | 46.51395 | 6.50468 | 30292 ft | 444 kts | 294° |
| 2026-05-08 06:39 | 46.52911 | 6.46561 | 30556 ft | 444 kts | 294° |
| 2026-05-08 06:40 | 46.55957 | 6.38704 | 30653 ft | 454 kts | 295° |
| 2026-05-08 06:40 | 46.57520 | 6.34696 | 30914 ft | 453 kts | 295° |
| 2026-05-08 06:40 | 46.59075 | 6.30721 | 31192 ft | 452 kts | 295° |
| 2026-05-08 06:41 | 46.60633 | 6.26744 | 31452 ft | 451 kts | 295° |
| 2026-05-08 06:41 | 46.62168 | 6.22818 | 31700 ft | 451 kts | 295° |
| 2026-05-08 06:41 | 46.63723 | 6.18837 | 31902 ft | 452 kts | 296° |
| 2026-05-08 06:41 | 46.65281 | 6.14843 | 32128 ft | 452 kts | 296° |
| 2026-05-08 06:42 | 46.66812 | 6.10910 | 32350 ft | 452 kts | 296° |
| 2026-05-08 06:42 | 46.68363 | 6.06919 | 32566 ft | 452 kts | 296° |
| 2026-05-08 06:42 | 46.71466 | 5.98913 | 32845 ft | 456 kts | 296° |
| 2026-05-08 06:43 | 46.73024 | 5.94885 | 33096 ft | 455 kts | 296° |
| 2026-05-08 06:43 | 46.74576 | 5.90868 | 33331 ft | 454 kts | 296° |
| 2026-05-08 06:43 | 46.76129 | 5.86842 | 33559 ft | 454 kts | 296° |
| 2026-05-08 06:43 | 46.77676 | 5.82826 | 33767 ft | 454 kts | 296° |
| 2026-05-08 06:44 | 46.79205 | 5.78852 | 33969 ft | 454 kts | 296° |
| 2026-05-08 06:44 | 46.80851 | 5.74906 | 34022 ft | 456 kts | 302° |
| 2026-05-08 06:44 | 46.85071 | 5.67904 | 34036 ft | 460 kts | 313° |
| 2026-05-08 06:45 | 46.89684 | 5.61448 | 34042 ft | 462 kts | 314° |
| 2026-05-08 06:45 | 46.94404 | 5.55033 | 34047 ft | 462 kts | 314° |
| 2026-05-08 06:46 | 46.99097 | 5.48625 | 34047 ft | 462 kts | 314° |
| 2026-05-08 06:46 | 47.03763 | 5.42199 | 34047 ft | 462 kts | 314° |
| 2026-05-08 06:47 | 47.08436 | 5.35729 | 34050 ft | 462 kts | 314° |
| 2026-05-08 06:47 | 47.13113 | 5.29235 | 34048 ft | 462 kts | 314° |
| 2026-05-08 06:48 | 47.17784 | 5.22734 | 34047 ft | 462 kts | 314° |
| 2026-05-08 06:48 | 47.22432 | 5.16252 | 34047 ft | 462 kts | 314° |
| 2026-05-08 06:49 | 47.26953 | 5.09544 | 34048 ft | 460 kts | 306° |
| 2026-05-08 06:49 | 47.30750 | 5.01958 | 34048 ft | 459 kts | 303° |
| 2026-05-08 06:50 | 47.34355 | 4.94250 | 34051 ft | 459 kts | 302° |
| 2026-05-08 06:50 | 47.37938 | 4.86466 | 34048 ft | 458 kts | 302° |
| 2026-05-08 06:51 | 47.41528 | 4.78667 | 34038 ft | 458 kts | 302° |
| 2026-05-08 06:51 | 47.45113 | 4.70888 | 34038 ft | 458 kts | 302° |
| 2026-05-08 06:52 | 47.48676 | 4.63145 | 34040 ft | 458 kts | 302° |
| 2026-05-08 06:52 | 47.52260 | 4.55337 | 34049 ft | 458 kts | 302° |
| 2026-05-08 06:53 | 47.55834 | 4.47527 | 34036 ft | 456 kts | 302° |
| 2026-05-08 06:53 | 47.59379 | 4.39756 | 34036 ft | 456 kts | 302° |
| 2026-05-08 06:54 | 47.62915 | 4.31982 | 34029 ft | 456 kts | 302° |
| 2026-05-08 06:54 | 47.66451 | 4.24188 | 34036 ft | 456 kts | 302° |
| 2026-05-08 06:55 | 47.69987 | 4.16369 | 34034 ft | 456 kts | 301° |
| 2026-05-08 06:55 | 47.73524 | 4.08528 | 34041 ft | 454 kts | 301° |
| 2026-05-08 06:56 | 47.77016 | 4.00766 | 34038 ft | 454 kts | 301° |
| 2026-05-08 06:56 | 47.80508 | 3.92978 | 34039 ft | 454 kts | 301° |
| 2026-05-08 06:57 | 47.84015 | 3.85135 | 34031 ft | 454 kts | 301° |
| 2026-05-08 06:57 | 47.87501 | 3.77317 | 34038 ft | 454 kts | 301° |
| 2026-05-08 06:58 | 47.90990 | 3.69468 | 34022 ft | 454 kts | 301° |
| 2026-05-08 06:58 | 47.94458 | 3.61647 | 34040 ft | 454 kts | 301° |
| 2026-05-08 06:59 | 47.97783 | 3.55551 | 34048 ft | 458 kts | 313° |
| 2026-05-08 06:59 | 48.02519 | 3.49090 | 34028 ft | 460 kts | 316° |
| 2026-05-08 07:00 | 48.07373 | 3.42858 | 34048 ft | 460 kts | 317° |
| 2026-05-08 07:00 | 48.12232 | 3.36664 | 34046 ft | 459 kts | 317° |
| 2026-05-08 07:01 | 48.17077 | 3.30437 | 34045 ft | 456 kts | 316° |
| 2026-05-08 07:01 | 48.21873 | 3.24229 | 34048 ft | 457 kts | 316° |
| 2026-05-08 07:02 | 48.26685 | 3.17977 | 34051 ft | 458 kts | 316° |
| 2026-05-08 07:02 | 48.31483 | 3.11726 | 34051 ft | 457 kts | 316° |
| 2026-05-08 07:03 | 48.36279 | 3.05467 | 34056 ft | 457 kts | 316° |
| 2026-05-08 07:03 | 48.40640 | 2.98546 | 34061 ft | 452 kts | 303° |
| 2026-05-08 07:04 | 48.43420 | 2.90220 | 34063 ft | 445 kts | 288° |
| 2026-05-08 07:04 | 48.45258 | 2.81372 | 34061 ft | 445 kts | 284° |
| 2026-05-08 07:05 | 48.46938 | 2.72342 | 34064 ft | 445 kts | 284° |
| 2026-05-08 07:05 | 48.48596 | 2.63389 | 34064 ft | 445 kts | 284° |
| 2026-05-08 07:06 | 48.50281 | 2.54405 | 34067 ft | 445 kts | 284° |
| 2026-05-08 07:06 | 48.51961 | 2.45486 | 34073 ft | 443 kts | 284° |
| 2026-05-08 07:07 | 48.53645 | 2.36516 | 34072 ft | 443 kts | 284° |
| 2026-05-08 07:07 | 48.55310 | 2.27596 | 34074 ft | 443 kts | 284° |
| 2026-05-08 07:08 | 48.56951 | 2.18655 | 34069 ft | 443 kts | 283° |
| 2026-05-08 07:08 | 48.58322 | 2.09556 | 34070 ft | 442 kts | 281° |
| 2026-05-08 07:09 | 48.59545 | 2.00506 | 34068 ft | 441 kts | 280° |
| 2026-05-08 07:09 | 48.60773 | 1.91438 | 34065 ft | 441 kts | 281° |
| 2026-05-08 07:10 | 48.62020 | 1.82371 | 34048 ft | 441 kts | 281° |
| 2026-05-08 07:10 | 48.63266 | 1.73334 | 34055 ft | 441 kts | 281° |
| 2026-05-08 07:11 | 48.64513 | 1.64242 | 34052 ft | 439 kts | 280° |
| 2026-05-08 07:11 | 48.65736 | 1.55220 | 34050 ft | 439 kts | 280° |
| 2026-05-08 07:12 | 48.66956 | 1.46149 | 34050 ft | 439 kts | 280° |
| 2026-05-08 07:12 | 48.68162 | 1.37119 | 34048 ft | 439 kts | 280° |
| 2026-05-08 07:13 | 48.69360 | 1.28100 | 34052 ft | 439 kts | 280° |
| 2026-05-08 07:13 | 48.70557 | 1.19036 | 34052 ft | 436 kts | 280° |
| 2026-05-08 07:14 | 48.71738 | 1.10035 | 34052 ft | 436 kts | 280° |
| 2026-05-08 07:14 | 48.72908 | 1.01060 | 34051 ft | 436 kts | 280° |
| 2026-05-08 07:15 | 48.74073 | 0.92070 | 34050 ft | 436 kts | 280° |
| 2026-05-08 07:15 | 48.75233 | 0.83078 | 34048 ft | 435 kts | 280° |
| 2026-05-08 07:16 | 48.76392 | 0.74062 | 34048 ft | 433 kts | 280° |
| 2026-05-08 07:16 | 48.77534 | 0.65128 | 34051 ft | 433 kts | 280° |
| 2026-05-08 07:17 | 48.78677 | 0.56129 | 34048 ft | 433 kts | 280° |
| 2026-05-08 07:17 | 48.80016 | 0.47219 | 34046 ft | 433 kts | 284° |
| 2026-05-08 07:18 | 48.81632 | 0.38444 | 34047 ft | 432 kts | 285° |
| 2026-05-08 07:18 | 48.83261 | 0.29735 | 34046 ft | 428 kts | 285° |
| 2026-05-08 07:19 | 48.84844 | 0.21051 | 34042 ft | 428 kts | 285° |
| 2026-05-08 07:19 | 48.86405 | 0.12329 | 34042 ft | 429 kts | 285° |
| 2026-05-08 07:20 | 48.87954 | 0.03596 | 34045 ft | 428 kts | 285° |
| 2026-05-08 07:20 | 48.89504 | -0.05181 | 34045 ft | 427 kts | 285° |
| 2026-05-08 07:21 | 48.91022 | -0.13813 | 34049 ft | 422 kts | 285° |
| 2026-05-08 07:21 | 48.92524 | -0.22388 | 34048 ft | 421 kts | 285° |
| 2026-05-08 07:22 | 48.94012 | -0.31035 | 34047 ft | 421 kts | 285° |
| 2026-05-08 07:22 | 48.95463 | -0.39630 | 34047 ft | 421 kts | 285° |
| 2026-05-08 07:23 | 48.96914 | -0.48288 | 34047 ft | 421 kts | 285° |
| 2026-05-08 07:23 | 48.98352 | -0.56898 | 34046 ft | 421 kts | 285° |
| 2026-05-08 07:24 | 48.99796 | -0.65571 | 34045 ft | 421 kts | 285° |
| 2026-05-08 07:24 | 49.01225 | -0.74198 | 34043 ft | 421 kts | 285° |
| 2026-05-08 07:25 | 49.02644 | -0.82808 | 34042 ft | 421 kts | 285° |
| 2026-05-08 07:26 | 49.04763 | -0.95754 | 34036 ft | 418 kts | 285° |
| 2026-05-08 07:26 | 49.06155 | -1.04319 | 34036 ft | 416 kts | 285° |
| 2026-05-08 07:27 | 49.07546 | -1.12910 | 34047 ft | 416 kts | 285° |
| 2026-05-08 07:27 | 49.08930 | -1.21464 | 34040 ft | 419 kts | 285° |
| 2026-05-08 07:28 | 49.10337 | -1.30144 | 34036 ft | 420 kts | 285° |
| 2026-05-08 07:28 | 49.11725 | -1.38740 | 34035 ft | 417 kts | 285° |
| 2026-05-08 07:29 | 49.13093 | -1.47269 | 34030 ft | 413 kts | 285° |
| 2026-05-08 07:29 | 49.14458 | -1.55812 | 34031 ft | 413 kts | 285° |
| 2026-05-08 07:30 | 49.15810 | -1.64316 | 34031 ft | 413 kts | 285° |
| 2026-05-08 07:30 | 49.17161 | -1.72863 | 34028 ft | 413 kts | 285° |
| 2026-05-08 07:31 | 49.18499 | -1.81372 | 34028 ft | 413 kts | 285° |
| 2026-05-08 07:31 | 49.19830 | -1.89882 | 34023 ft | 413 kts | 285° |
| 2026-05-08 07:32 | 49.21165 | -1.98461 | 34023 ft | 413 kts | 285° |
| 2026-05-08 07:32 | 49.22505 | -2.06960 | 34032 ft | 413 kts | 286° |
| 2026-05-08 07:33 | 49.23946 | -2.15416 | 34030 ft | 412 kts | 287° |
| 2026-05-08 07:33 | 49.25420 | -2.23912 | 34039 ft | 413 kts | 286° |
| 2026-05-08 07:34 | 49.26881 | -2.32411 | 34019 ft | 414 kts | 286° |
| 2026-05-08 07:34 | 49.28335 | -2.40961 | 34019 ft | 414 kts | 286° |
| 2026-05-08 07:35 | 49.29769 | -2.49461 | 34034 ft | 414 kts | 285° |
| 2026-05-08 07:35 | 49.31207 | -2.58031 | 34017 ft | 414 kts | 285° |
| 2026-05-08 07:36 | 49.32632 | -2.66558 | 34036 ft | 414 kts | 285° |
| 2026-05-08 07:36 | 49.34049 | -2.75075 | 34012 ft | 414 kts | 285° |
| 2026-05-08 07:37 | 49.35472 | -2.83675 | 34027 ft | 413 kts | 285° |
| 2026-05-08 07:37 | 49.36867 | -2.92150 | 34014 ft | 411 kts | 285° |
| 2026-05-08 07:38 | 49.38257 | -3.00635 | 34033 ft | 411 kts | 285° |
| 2026-05-08 07:38 | 49.39646 | -3.09160 | 34023 ft | 411 kts | 284° |
| 2026-05-08 07:39 | 49.41024 | -3.17656 | 34029 ft | 412 kts | 284° |
| 2026-05-08 07:39 | 49.42407 | -3.26224 | 34029 ft | 413 kts | 284° |
| 2026-05-08 07:40 | 49.43777 | -3.34765 | 34018 ft | 413 kts | 284° |
| 2026-05-08 07:40 | 49.45148 | -3.43348 | 34029 ft | 413 kts | 284° |
| 2026-05-08 07:41 | 49.46506 | -3.51899 | 34020 ft | 413 kts | 284° |
| 2026-05-08 07:41 | 49.47857 | -3.60447 | 34010 ft | 413 kts | 283° |
| 2026-05-08 07:42 | 49.49212 | -3.69067 | 34019 ft | 414 kts | 283° |
| 2026-05-08 07:42 | 49.50560 | -3.77688 | 34018 ft | 414 kts | 283° |
| 2026-05-08 07:43 | 49.51894 | -3.86267 | 34024 ft | 414 kts | 283° |
| 2026-05-08 07:43 | 49.53225 | -3.94870 | 34015 ft | 414 kts | 283° |
| 2026-05-08 07:44 | 49.54556 | -4.03515 | 34019 ft | 414 kts | 283° |
| 2026-05-08 07:44 | 49.55872 | -4.12114 | 34020 ft | 415 kts | 282° |
| 2026-05-08 07:45 | 49.57194 | -4.20798 | 34010 ft | 415 kts | 282° |
| 2026-05-08 07:45 | 49.58564 | -4.29408 | 34018 ft | 415 kts | 286° |
| 2026-05-08 07:46 | 49.60942 | -4.37510 | 34006 ft | 418 kts | 297° |
| 2026-05-08 07:46 | 49.63957 | -4.45161 | 34017 ft | 419 kts | 300° |
| 2026-05-08 07:47 | 49.67110 | -4.52787 | 34008 ft | 420 kts | 299° |
| 2026-05-08 07:47 | 49.70250 | -4.60397 | 34014 ft | 421 kts | 299° |
| 2026-05-08 07:48 | 49.73373 | -4.68042 | 34015 ft | 422 kts | 299° |
| 2026-05-08 07:48 | 49.76487 | -4.75715 | 34032 ft | 422 kts | 299° |
| 2026-05-08 07:49 | 49.79588 | -4.83383 | 34011 ft | 422 kts | 298° |
| 2026-05-08 07:49 | 49.82694 | -4.91086 | 34012 ft | 422 kts | 298° |
| 2026-05-08 07:50 | 49.85798 | -4.98807 | 34014 ft | 422 kts | 298° |
| 2026-05-08 07:50 | 49.88887 | -5.06509 | 34017 ft | 421 kts | 299° |
| 2026-05-08 07:51 | 49.91972 | -5.14224 | 34018 ft | 421 kts | 299° |
| 2026-05-08 07:51 | 49.95061 | -5.21973 | 33997 ft | 421 kts | 298° |
| 2026-05-08 07:52 | 49.98121 | -5.29675 | 33994 ft | 421 kts | 298° |
| 2026-05-08 07:52 | 50.01194 | -5.37428 | 33995 ft | 421 kts | 298° |
| 2026-05-08 07:53 | 50.04251 | -5.45165 | 33997 ft | 421 kts | 298° |
| 2026-05-08 07:53 | 50.07305 | -5.52917 | 34009 ft | 422 kts | 298° |
| 2026-05-08 07:54 | 50.10383 | -5.60756 | 34006 ft | 423 kts | 298° |
| 2026-05-08 07:54 | 50.13445 | -5.68573 | 33994 ft | 423 kts | 298° |
| 2026-05-08 07:55 | 50.15999 | -5.75113 | 33993 ft | 423 kts | 298° |
| 2026-05-08 07:55 | 50.19563 | -5.84264 | 33998 ft | 423 kts | 298° |
| 2026-05-08 07:56 | 50.22112 | -5.90830 | 34000 ft | 423 kts | 298° |
| 2026-05-08 07:56 | 50.25156 | -5.98695 | 34015 ft | 423 kts | 297° |
| 2026-05-08 07:57 | 50.28195 | -6.06570 | 34011 ft | 425 kts | 297° |
| 2026-05-08 07:57 | 50.31258 | -6.14531 | 34016 ft | 426 kts | 297° |
| 2026-05-08 07:58 | 50.34300 | -6.22460 | 34018 ft | 426 kts | 297° |
| 2026-05-08 07:58 | 50.37326 | -6.30373 | 34017 ft | 426 kts | 297° |
| 2026-05-08 07:59 | 50.40377 | -6.38376 | 34017 ft | 426 kts | 297° |
| 2026-05-08 07:59 | 50.43402 | -6.46335 | 34018 ft | 426 kts | 297° |
| 2026-05-08 08:00 | 50.46424 | -6.54312 | 34020 ft | 427 kts | 296° |
| 2026-05-08 08:00 | 50.49468 | -6.62371 | 34023 ft | 428 kts | 296° |
| 2026-05-08 08:01 | 50.52489 | -6.70392 | 34029 ft | 428 kts | 296° |
| 2026-05-08 08:01 | 50.55507 | -6.78431 | 34026 ft | 428 kts | 296° |
| 2026-05-08 08:02 | 50.58543 | -6.86543 | 34026 ft | 428 kts | 296° |
| 2026-05-08 08:02 | 50.61553 | -6.94612 | 34026 ft | 428 kts | 296° |
| 2026-05-08 08:03 | 50.64554 | -7.02682 | 34027 ft | 428 kts | 295° |
| 2026-05-08 08:03 | 50.67558 | -7.10786 | 34031 ft | 430 kts | 295° |
| 2026-05-08 08:04 | 50.70566 | -7.18925 | 34026 ft | 430 kts | 295° |
| 2026-05-08 08:04 | 50.73576 | -7.27095 | 34026 ft | 429 kts | 295° |
| 2026-05-08 08:05 | 50.76567 | -7.35239 | 34029 ft | 430 kts | 295° |
| 2026-05-08 08:05 | 50.79548 | -7.43384 | 34028 ft | 429 kts | 295° |
| 2026-05-08 08:06 | 50.82547 | -7.51602 | 34028 ft | 429 kts | 295° |
| 2026-05-08 08:06 | 50.85519 | -7.59773 | 34026 ft | 430 kts | 294° |
| 2026-05-08 08:07 | 50.88486 | -7.67960 | 34035 ft | 431 kts | 294° |
| 2026-05-08 08:07 | 50.91460 | -7.76188 | 34031 ft | 431 kts | 294° |
| 2026-05-08 08:08 | 50.94438 | -7.84453 | 34026 ft | 431 kts | 294° |
| 2026-05-08 08:08 | 50.97396 | -7.92693 | 34035 ft | 431 kts | 294° |
| 2026-05-08 08:09 | 51.00373 | -8.00959 | 34026 ft | 431 kts | 295° |
| 2026-05-08 08:09 | 51.03485 | -8.09098 | 34031 ft | 433 kts | 296° |
| 2026-05-08 08:10 | 51.06672 | -8.17257 | 34037 ft | 434 kts | 296° |
| 2026-05-08 08:10 | 51.09830 | -8.25381 | 34030 ft | 433 kts | 296° |
| 2026-05-08 08:11 | 51.12963 | -8.33513 | 34028 ft | 432 kts | 296° |
| 2026-05-08 08:11 | 51.16099 | -8.41697 | 34026 ft | 432 kts | 295° |
| 2026-05-08 08:12 | 51.19228 | -8.49892 | 34028 ft | 432 kts | 295° |
| 2026-05-08 08:12 | 51.22342 | -8.58072 | 34029 ft | 432 kts | 295° |
| 2026-05-08 08:13 | 51.25451 | -8.66265 | 34051 ft | 433 kts | 295° |
| 2026-05-08 08:13 | 51.28582 | -8.74539 | 34022 ft | 434 kts | 295° |
| 2026-05-08 08:14 | 51.31694 | -8.82791 | 34026 ft | 434 kts | 295° |
| 2026-05-08 08:14 | 51.34794 | -8.91035 | 34028 ft | 434 kts | 295° |
| 2026-05-08 08:15 | 51.37897 | -8.99315 | 34025 ft | 434 kts | 295° |
| 2026-05-08 08:15 | 51.40990 | -9.07595 | 34024 ft | 434 kts | 295° |
| 2026-05-08 08:16 | 51.44090 | -9.15921 | 34033 ft | 434 kts | 294° |
| 2026-05-08 08:16 | 51.47162 | -9.24203 | 34028 ft | 435 kts | 294° |
| 2026-05-08 08:17 | 51.50259 | -9.32575 | 34025 ft | 436 kts | 294° |
| 2026-05-08 08:17 | 51.53339 | -9.40930 | 34095 ft | 439 kts | 294° |
| 2026-05-08 08:17 | 51.54897 | -9.45170 | 34251 ft | 440 kts | 294° |
| 2026-05-08 08:18 | 51.56452 | -9.49407 | 34411 ft | 440 kts | 294° |
| 2026-05-08 08:18 | 51.58007 | -9.53646 | 34579 ft | 440 kts | 294° |
| 2026-05-08 08:18 | 51.59562 | -9.57895 | 34742 ft | 441 kts | 294° |
| 2026-05-08 08:18 | 51.61117 | -9.62151 | 34894 ft | 441 kts | 294° |
| 2026-05-08 08:19 | 51.62672 | -9.66414 | 35046 ft | 442 kts | 294° |
| 2026-05-08 08:19 | 51.64227 | -9.70685 | 35197 ft | 442 kts | 294° |